sensor_id;sensor_type;location;lat;lon;timestamp;temperature;humidity
75719;DHT22;64340;48.534;-3.036;2023-11-19T00:00:44;18.30;69.80
75719;DHT22;64340;48.534;-3.036;2023-11-19T00:03:10;18.20;69.80
75719;DHT22;64340;48.534;-3.036;2023-11-19T00:05:36;18.20;69.90
75719;DHT22;64340;48.534;-3.036;2023-11-19T00:08:02;18.20;69.90
75719;DHT22;64340;48.534;-3.036;2023-11-19T00:10:27;18.20;69.90
75719;DHT22;64340;48.534;-3.036;2023-11-19T00:12:53;18.20;69.80
75719;DHT22;64340;48.534;-3.036;2023-11-19T00:15:19;18.20;69.90
75719;DHT22;64340;48.534;-3.036;2023-11-19T00:17:46;18.20;69.80
75719;DHT22;64340;48.534;-3.036;2023-11-19T00:20:17;18.10;69.70
75719;DHT22;64340;48.534;-3.036;2023-11-19T00:22:43;18.10;69.80
75719;DHT22;64340;48.534;-3.036;2023-11-19T00:25:09;18.20;69.70
75719;DHT22;64340;48.534;-3.036;2023-11-19T00:27:35;18.10;69.70
75719;DHT22;64340;48.534;-3.036;2023-11-19T00:30:03;18.20;69.60
75719;DHT22;64340;48.534;-3.036;2023-11-19T00:32:31;18.10;69.60
75719;DHT22;64340;48.534;-3.036;2023-11-19T00:34:57;18.10;69.60
75719;DHT22;64340;48.534;-3.036;2023-11-19T00:37:23;18.10;69.60
75719;DHT22;64340;48.534;-3.036;2023-11-19T00:39:49;18.10;69.60
75719;DHT22;64340;48.534;-3.036;2023-11-19T00:42:14;18.10;69.50
75719;DHT22;64340;48.534;-3.036;2023-11-19T00:44:40;18.10;69.50
75719;DHT22;64340;48.534;-3.036;2023-11-19T00:47:07;18.10;69.60
75719;DHT22;64340;48.534;-3.036;2023-11-19T00:49:32;18.00;69.50
75719;DHT22;64340;48.534;-3.036;2023-11-19T00:51:59;18.00;69.60
75719;DHT22;64340;48.534;-3.036;2023-11-19T00:54:25;18.00;69.50
75719;DHT22;64340;48.534;-3.036;2023-11-19T00:56:54;18.00;69.50
75719;DHT22;64340;48.534;-3.036;2023-11-19T00:59:20;18.00;69.50
75719;DHT22;64340;48.534;-3.036;2023-11-19T01:01:46;18.00;69.40
75719;DHT22;64340;48.534;-3.036;2023-11-19T01:04:16;18.00;69.40
75719;DHT22;64340;48.534;-3.036;2023-11-19T01:06:42;18.00;69.50
75719;DHT22;64340;48.534;-3.036;2023-11-19T01:09:08;18.00;69.40
75719;DHT22;64340;48.534;-3.036;2023-11-19T01:11:35;18.00;69.50
75719;DHT22;64340;48.534;-3.036;2023-11-19T01:14:01;18.00;69.40
75719;DHT22;64340;48.534;-3.036;2023-11-19T01:16:27;18.00;69.40
75719;DHT22;64340;48.534;-3.036;2023-11-19T01:18:53;18.00;69.40
75719;DHT22;64340;48.534;-3.036;2023-11-19T01:21:19;17.90;69.40
75719;DHT22;64340;48.534;-3.036;2023-11-19T01:23:45;17.90;69.30
75719;DHT22;64340;48.534;-3.036;2023-11-19T01:26:11;17.90;69.40
75719;DHT22;64340;48.534;-3.036;2023-11-19T01:28:41;17.80;69.30
75719;DHT22;64340;48.534;-3.036;2023-11-19T01:31:15;17.80;69.40
75719;DHT22;64340;48.534;-3.036;2023-11-19T01:33:40;17.80;69.30
75719;DHT22;64340;48.534;-3.036;2023-11-19T01:36:07;17.80;69.30
75719;DHT22;64340;48.534;-3.036;2023-11-19T01:38:34;17.80;69.20
75719;DHT22;64340;48.534;-3.036;2023-11-19T01:41:00;17.80;69.30
75719;DHT22;64340;48.534;-3.036;2023-11-19T01:43:38;17.80;69.30
75719;DHT22;64340;48.534;-3.036;2023-11-19T01:46:07;17.80;69.40
75719;DHT22;64340;48.534;-3.036;2023-11-19T01:48:36;17.80;69.40
75719;DHT22;64340;48.534;-3.036;2023-11-19T01:51:03;17.80;69.30
75719;DHT22;64340;48.534;-3.036;2023-11-19T01:53:30;17.80;69.40
75719;DHT22;64340;48.534;-3.036;2023-11-19T01:55:57;17.80;69.30
75719;DHT22;64340;48.534;-3.036;2023-11-19T01:58:23;17.80;69.30
75719;DHT22;64340;48.534;-3.036;2023-11-19T02:00:50;17.80;69.40
75719;DHT22;64340;48.534;-3.036;2023-11-19T02:03:16;17.70;69.40
75719;DHT22;64340;48.534;-3.036;2023-11-19T02:05:42;17.70;69.40
75719;DHT22;64340;48.534;-3.036;2023-11-19T02:08:08;17.70;69.30
75719;DHT22;64340;48.534;-3.036;2023-11-19T02:10:34;17.70;69.20
75719;DHT22;64340;48.534;-3.036;2023-11-19T02:13:01;17.70;69.20
75719;DHT22;64340;48.534;-3.036;2023-11-19T02:15:26;17.70;69.20
75719;DHT22;64340;48.534;-3.036;2023-11-19T02:17:52;17.70;69.10
75719;DHT22;64340;48.534;-3.036;2023-11-19T02:20:18;17.60;69.30
75719;DHT22;64340;48.534;-3.036;2023-11-19T02:22:46;17.60;69.20
75719;DHT22;64340;48.534;-3.036;2023-11-19T02:25:19;17.60;69.20
75719;DHT22;64340;48.534;-3.036;2023-11-19T02:27:58;17.70;69.10
75719;DHT22;64340;48.534;-3.036;2023-11-19T02:30:25;17.60;69.10
75719;DHT22;64340;48.534;-3.036;2023-11-19T02:33:00;17.60;69.10
75719;DHT22;64340;48.534;-3.036;2023-11-19T02:35:31;17.60;69.10
75719;DHT22;64340;48.534;-3.036;2023-11-19T02:37:58;17.60;69.20
75719;DHT22;64340;48.534;-3.036;2023-11-19T02:40:29;17.60;69.00
75719;DHT22;64340;48.534;-3.036;2023-11-19T02:42:55;17.50;69.20
75719;DHT22;64340;48.534;-3.036;2023-11-19T02:45:24;17.50;69.20
75719;DHT22;64340;48.534;-3.036;2023-11-19T02:47:53;17.50;69.10
75719;DHT22;64340;48.534;-3.036;2023-11-19T02:50:20;17.50;69.10
75719;DHT22;64340;48.534;-3.036;2023-11-19T02:52:54;17.50;69.10
75719;DHT22;64340;48.534;-3.036;2023-11-19T02:55:22;17.50;69.20
75719;DHT22;64340;48.534;-3.036;2023-11-19T02:57:49;17.50;69.20
75719;DHT22;64340;48.534;-3.036;2023-11-19T03:00:18;17.50;69.30
75719;DHT22;64340;48.534;-3.036;2023-11-19T03:02:49;17.40;69.30
75719;DHT22;64340;48.534;-3.036;2023-11-19T03:05:24;17.50;69.30
75719;DHT22;64340;48.534;-3.036;2023-11-19T03:07:50;17.50;69.30
75719;DHT22;64340;48.534;-3.036;2023-11-19T03:10:16;17.50;69.20
75719;DHT22;64340;48.534;-3.036;2023-11-19T03:12:43;17.50;69.20
75719;DHT22;64340;48.534;-3.036;2023-11-19T03:15:09;17.40;69.20
75719;DHT22;64340;48.534;-3.036;2023-11-19T03:17:39;17.40;69.30
75719;DHT22;64340;48.534;-3.036;2023-11-19T03:20:06;17.40;69.20
75719;DHT22;64340;48.534;-3.036;2023-11-19T03:22:36;17.50;69.20
75719;DHT22;64340;48.534;-3.036;2023-11-19T03:25:02;17.40;69.20
75719;DHT22;64340;48.534;-3.036;2023-11-19T03:27:27;17.40;69.20
75719;DHT22;64340;48.534;-3.036;2023-11-19T03:29:53;17.40;69.30
75719;DHT22;64340;48.534;-3.036;2023-11-19T03:32:19;17.30;69.40
75719;DHT22;64340;48.534;-3.036;2023-11-19T03:34:45;17.40;69.30
75719;DHT22;64340;48.534;-3.036;2023-11-19T03:37:11;17.30;69.20
75719;DHT22;64340;48.534;-3.036;2023-11-19T03:39:37;17.30;69.30
75719;DHT22;64340;48.534;-3.036;2023-11-19T03:42:03;17.30;69.20
75719;DHT22;64340;48.534;-3.036;2023-11-19T03:44:29;17.30;69.20
75719;DHT22;64340;48.534;-3.036;2023-11-19T03:46:54;17.20;69.30
75719;DHT22;64340;48.534;-3.036;2023-11-19T03:49:20;17.20;69.30
75719;DHT22;64340;48.534;-3.036;2023-11-19T03:51:46;17.20;69.30
75719;DHT22;64340;48.534;-3.036;2023-11-19T03:54:12;17.20;69.30
75719;DHT22;64340;48.534;-3.036;2023-11-19T03:56:39;17.20;69.40
75719;DHT22;64340;48.534;-3.036;2023-11-19T03:59:05;17.20;69.30
75719;DHT22;64340;48.534;-3.036;2023-11-19T04:01:31;17.20;69.30
75719;DHT22;64340;48.534;-3.036;2023-11-19T04:03:56;17.20;69.30
75719;DHT22;64340;48.534;-3.036;2023-11-19T04:06:22;17.20;69.30
75719;DHT22;64340;48.534;-3.036;2023-11-19T04:08:48;17.20;69.30
75719;DHT22;64340;48.534;-3.036;2023-11-19T04:11:14;17.20;69.30
75719;DHT22;64340;48.534;-3.036;2023-11-19T04:13:40;17.20;69.30
75719;DHT22;64340;48.534;-3.036;2023-11-19T04:16:06;17.20;69.30
75719;DHT22;64340;48.534;-3.036;2023-11-19T04:18:31;17.20;69.30
75719;DHT22;64340;48.534;-3.036;2023-11-19T04:20:57;17.20;69.30
75719;DHT22;64340;48.534;-3.036;2023-11-19T04:23:24;17.10;69.30
75719;DHT22;64340;48.534;-3.036;2023-11-19T04:25:50;17.10;69.40
75719;DHT22;64340;48.534;-3.036;2023-11-19T04:28:16;17.10;69.40
75719;DHT22;64340;48.534;-3.036;2023-11-19T04:30:42;17.10;69.40
75719;DHT22;64340;48.534;-3.036;2023-11-19T04:33:07;17.00;69.50
75719;DHT22;64340;48.534;-3.036;2023-11-19T04:35:33;17.00;69.40
75719;DHT22;64340;48.534;-3.036;2023-11-19T04:37:59;17.00;69.50
75719;DHT22;64340;48.534;-3.036;2023-11-19T04:40:25;17.00;69.50
75719;DHT22;64340;48.534;-3.036;2023-11-19T04:42:50;17.00;69.50
75719;DHT22;64340;48.534;-3.036;2023-11-19T04:45:16;17.00;69.40
75719;DHT22;64340;48.534;-3.036;2023-11-19T04:47:45;17.00;69.50
75719;DHT22;64340;48.534;-3.036;2023-11-19T04:50:11;17.00;69.40
75719;DHT22;64340;48.534;-3.036;2023-11-19T04:52:39;17.00;69.50
75719;DHT22;64340;48.534;-3.036;2023-11-19T04:55:12;17.00;69.50
75719;DHT22;64340;48.534;-3.036;2023-11-19T04:57:37;17.00;69.60
75719;DHT22;64340;48.534;-3.036;2023-11-19T05:00:04;17.00;69.40
75719;DHT22;64340;48.534;-3.036;2023-11-19T05:02:30;17.00;69.50
75719;DHT22;64340;48.534;-3.036;2023-11-19T05:04:56;17.00;69.40
75719;DHT22;64340;48.534;-3.036;2023-11-19T05:07:22;17.00;69.40
75719;DHT22;64340;48.534;-3.036;2023-11-19T05:09:48;17.00;69.50
75719;DHT22;64340;48.534;-3.036;2023-11-19T05:12:14;17.00;69.40
75719;DHT22;64340;48.534;-3.036;2023-11-19T05:14:39;17.00;69.50
75719;DHT22;64340;48.534;-3.036;2023-11-19T05:17:05;17.00;69.40
75719;DHT22;64340;48.534;-3.036;2023-11-19T05:19:31;17.00;69.50
75719;DHT22;64340;48.534;-3.036;2023-11-19T05:21:57;17.00;69.40
75719;DHT22;64340;48.534;-3.036;2023-11-19T05:24:22;16.90;69.30
75719;DHT22;64340;48.534;-3.036;2023-11-19T05:26:48;16.90;69.40
75719;DHT22;64340;48.534;-3.036;2023-11-19T05:29:15;16.90;69.40
75719;DHT22;64340;48.534;-3.036;2023-11-19T05:31:42;16.90;69.40
75719;DHT22;64340;48.534;-3.036;2023-11-19T05:34:08;16.90;69.40
75719;DHT22;64340;48.534;-3.036;2023-11-19T05:36:34;16.90;69.40
75719;DHT22;64340;48.534;-3.036;2023-11-19T05:38:59;16.90;69.40
75719;DHT22;64340;48.534;-3.036;2023-11-19T05:41:25;16.90;69.50
75719;DHT22;64340;48.534;-3.036;2023-11-19T05:43:51;16.90;69.40
75719;DHT22;64340;48.534;-3.036;2023-11-19T05:46:17;16.90;69.40
75719;DHT22;64340;48.534;-3.036;2023-11-19T05:48:42;16.90;69.40
75719;DHT22;64340;48.534;-3.036;2023-11-19T05:51:09;16.90;69.50
75719;DHT22;64340;48.534;-3.036;2023-11-19T05:53:34;16.80;69.40
75719;DHT22;64340;48.534;-3.036;2023-11-19T05:56:00;16.80;69.40
75719;DHT22;64340;48.534;-3.036;2023-11-19T05:58:29;16.80;69.50
75719;DHT22;64340;48.534;-3.036;2023-11-19T06:00:56;16.80;69.50
75719;DHT22;64340;48.534;-3.036;2023-11-19T06:03:22;16.80;69.50
75719;DHT22;64340;48.534;-3.036;2023-11-19T06:05:51;16.80;69.50
75719;DHT22;64340;48.534;-3.036;2023-11-19T06:08:17;16.80;69.50
75719;DHT22;64340;48.534;-3.036;2023-11-19T06:10:44;16.80;69.50
75719;DHT22;64340;48.534;-3.036;2023-11-19T06:13:12;16.80;69.50
75719;DHT22;64340;48.534;-3.036;2023-11-19T06:15:42;16.80;69.50
75719;DHT22;64340;48.534;-3.036;2023-11-19T06:18:08;16.80;69.50
75719;DHT22;64340;48.534;-3.036;2023-11-19T06:20:34;16.80;69.50
75719;DHT22;64340;48.534;-3.036;2023-11-19T06:23:00;16.80;69.50
75719;DHT22;64340;48.534;-3.036;2023-11-19T06:25:26;16.80;69.40
75719;DHT22;64340;48.534;-3.036;2023-11-19T06:27:52;16.80;69.40
75719;DHT22;64340;48.534;-3.036;2023-11-19T06:30:18;16.70;69.50
75719;DHT22;64340;48.534;-3.036;2023-11-19T06:32:44;16.70;69.40
75719;DHT22;64340;48.534;-3.036;2023-11-19T06:35:10;16.70;69.40
75719;DHT22;64340;48.534;-3.036;2023-11-19T06:37:39;16.70;69.50
75719;DHT22;64340;48.534;-3.036;2023-11-19T06:40:05;16.70;69.50
75719;DHT22;64340;48.534;-3.036;2023-11-19T06:42:32;16.70;69.40
75719;DHT22;64340;48.534;-3.036;2023-11-19T06:44:58;16.70;69.40
75719;DHT22;64340;48.534;-3.036;2023-11-19T06:47:27;16.70;69.40
75719;DHT22;64340;48.534;-3.036;2023-11-19T06:49:54;16.70;69.40
75719;DHT22;64340;48.534;-3.036;2023-11-19T06:52:19;16.70;69.40
75719;DHT22;64340;48.534;-3.036;2023-11-19T06:54:45;16.70;69.30
75719;DHT22;64340;48.534;-3.036;2023-11-19T06:57:11;16.70;69.40
75719;DHT22;64340;48.534;-3.036;2023-11-19T06:59:37;16.70;69.30
75719;DHT22;64340;48.534;-3.036;2023-11-19T07:02:03;16.70;69.30
75719;DHT22;64340;48.534;-3.036;2023-11-19T07:04:30;16.70;69.30
75719;DHT22;64340;48.534;-3.036;2023-11-19T07:06:56;16.70;69.30
75719;DHT22;64340;48.534;-3.036;2023-11-19T07:09:22;16.60;69.30
75719;DHT22;64340;48.534;-3.036;2023-11-19T07:11:49;16.70;69.30
75719;DHT22;64340;48.534;-3.036;2023-11-19T07:14:18;16.70;69.30
75719;DHT22;64340;48.534;-3.036;2023-11-19T07:16:44;16.60;69.20
75719;DHT22;64340;48.534;-3.036;2023-11-19T07:19:10;16.60;69.20
75719;DHT22;64340;48.534;-3.036;2023-11-19T07:21:36;16.60;69.20
75719;DHT22;64340;48.534;-3.036;2023-11-19T07:24:09;16.70;69.20
75719;DHT22;64340;48.534;-3.036;2023-11-19T07:26:35;16.60;69.30
75719;DHT22;64340;48.534;-3.036;2023-11-19T07:29:02;16.60;69.40
75719;DHT22;64340;48.534;-3.036;2023-11-19T07:31:28;16.60;69.40
75719;DHT22;64340;48.534;-3.036;2023-11-19T07:33:54;16.60;69.40
75719;DHT22;64340;48.534;-3.036;2023-11-19T07:36:20;16.60;69.40
75719;DHT22;64340;48.534;-3.036;2023-11-19T07:38:46;16.60;69.40
75719;DHT22;64340;48.534;-3.036;2023-11-19T07:41:13;16.60;69.30
75719;DHT22;64340;48.534;-3.036;2023-11-19T07:43:39;16.60;69.40
75719;DHT22;64340;48.534;-3.036;2023-11-19T07:46:11;16.60;69.30
75719;DHT22;64340;48.534;-3.036;2023-11-19T07:48:38;16.60;69.30
75719;DHT22;64340;48.534;-3.036;2023-11-19T07:51:04;16.60;69.30
75719;DHT22;64340;48.534;-3.036;2023-11-19T07:53:30;16.60;69.30
75719;DHT22;64340;48.534;-3.036;2023-11-19T07:55:56;16.60;69.20
75719;DHT22;64340;48.534;-3.036;2023-11-19T07:58:22;16.60;69.20
75719;DHT22;64340;48.534;-3.036;2023-11-19T08:00:47;16.60;69.00
75719;DHT22;64340;48.534;-3.036;2023-11-19T08:03:13;16.60;69.00
75719;DHT22;64340;48.534;-3.036;2023-11-19T08:05:39;16.70;68.90
75719;DHT22;64340;48.534;-3.036;2023-11-19T08:08:05;16.60;68.90
75719;DHT22;64340;48.534;-3.036;2023-11-19T08:10:30;16.60;69.00
75719;DHT22;64340;48.534;-3.036;2023-11-19T08:12:58;16.60;69.10
75719;DHT22;64340;48.534;-3.036;2023-11-19T08:15:24;16.60;69.10
75719;DHT22;64340;48.534;-3.036;2023-11-19T08:17:50;16.60;69.20
75719;DHT22;64340;48.534;-3.036;2023-11-19T08:20:16;16.70;69.10
75719;DHT22;64340;48.534;-3.036;2023-11-19T08:22:42;16.70;69.10
75719;DHT22;64340;48.534;-3.036;2023-11-19T08:25:08;16.70;69.30
75719;DHT22;64340;48.534;-3.036;2023-11-19T08:27:34;16.80;69.60
75719;DHT22;64340;48.534;-3.036;2023-11-19T08:29:59;16.70;69.00
75719;DHT22;64340;48.534;-3.036;2023-11-19T08:32:28;16.40;67.80
75719;DHT22;64340;48.534;-3.036;2023-11-19T08:34:54;16.50;69.00
75719;DHT22;64340;48.534;-3.036;2023-11-19T08:37:19;16.50;67.50
75719;DHT22;64340;48.534;-3.036;2023-11-19T08:39:48;16.10;67.50
75719;DHT22;64340;48.534;-3.036;2023-11-19T08:42:13;15.90;68.30
75719;DHT22;64340;48.534;-3.036;2023-11-19T08:44:39;16.00;68.70
75719;DHT22;64340;48.534;-3.036;2023-11-19T08:47:09;16.10;68.60
75719;DHT22;64340;48.534;-3.036;2023-11-19T08:49:35;16.20;68.80
75719;DHT22;64340;48.534;-3.036;2023-11-19T08:52:00;16.30;68.90
75719;DHT22;64340;48.534;-3.036;2023-11-19T08:54:26;16.40;69.00
75719;DHT22;64340;48.534;-3.036;2023-11-19T08:56:52;16.40;68.90
75719;DHT22;64340;48.534;-3.036;2023-11-19T08:59:18;16.40;69.00
75719;DHT22;64340;48.534;-3.036;2023-11-19T09:01:44;16.40;68.80
75719;DHT22;64340;48.534;-3.036;2023-11-19T09:04:11;16.40;68.70
75719;DHT22;64340;48.534;-3.036;2023-11-19T09:06:36;16.40;67.80
75719;DHT22;64340;48.534;-3.036;2023-11-19T09:09:03;16.30;67.70
75719;DHT22;64340;48.534;-3.036;2023-11-19T09:11:31;16.30;68.20
75719;DHT22;64340;48.534;-3.036;2023-11-19T09:13:57;16.30;68.00
75719;DHT22;64340;48.534;-3.036;2023-11-19T09:16:23;16.30;68.40
75719;DHT22;64340;48.534;-3.036;2023-11-19T09:18:49;16.30;68.20
75719;DHT22;64340;48.534;-3.036;2023-11-19T09:21:15;16.40;68.50
75719;DHT22;64340;48.534;-3.036;2023-11-19T09:23:41;16.30;68.10
75719;DHT22;64340;48.534;-3.036;2023-11-19T09:26:08;16.30;68.20
75719;DHT22;64340;48.534;-3.036;2023-11-19T09:28:35;16.20;68.00
75719;DHT22;64340;48.534;-3.036;2023-11-19T09:31:01;16.20;68.10
75719;DHT22;64340;48.534;-3.036;2023-11-19T09:33:30;16.20;68.00
75719;DHT22;64340;48.534;-3.036;2023-11-19T09:35:56;16.20;68.20
75719;DHT22;64340;48.534;-3.036;2023-11-19T09:38:21;16.20;68.20
75719;DHT22;64340;48.534;-3.036;2023-11-19T09:40:47;16.20;68.60
75719;DHT22;64340;48.534;-3.036;2023-11-19T09:43:15;16.20;68.70
75719;DHT22;64340;48.534;-3.036;2023-11-19T09:46:01;16.20;68.50
75719;DHT22;64340;48.534;-3.036;2023-11-19T09:48:32;16.10;68.30
75719;DHT22;64340;48.534;-3.036;2023-11-19T09:50:58;16.10;68.40
75719;DHT22;64340;48.534;-3.036;2023-11-19T09:53:24;16.00;68.50
75719;DHT22;64340;48.534;-3.036;2023-11-19T09:55:51;16.00;68.50
75719;DHT22;64340;48.534;-3.036;2023-11-19T09:58:18;16.10;68.60
75719;DHT22;64340;48.534;-3.036;2023-11-19T10:00:43;16.20;68.90
75719;DHT22;64340;48.534;-3.036;2023-11-19T10:03:11;16.40;68.90
75719;DHT22;64340;48.534;-3.036;2023-11-19T10:05:38;16.50;70.10
75719;DHT22;64340;48.534;-3.036;2023-11-19T10:08:05;16.60;70.50
75719;DHT22;64340;48.534;-3.036;2023-11-19T10:10:31;16.80;71.10
75719;DHT22;64340;48.534;-3.036;2023-11-19T10:12:56;16.80;70.30
75719;DHT22;64340;48.534;-3.036;2023-11-19T10:15:24;17.00;70.20
75719;DHT22;64340;48.534;-3.036;2023-11-19T10:17:54;17.00;71.00
75719;DHT22;64340;48.534;-3.036;2023-11-19T10:20:20;17.20;70.70
75719;DHT22;64340;48.534;-3.036;2023-11-19T10:22:46;17.30;72.00
75719;DHT22;64340;48.534;-3.036;2023-11-19T10:25:28;17.40;70.40
75719;DHT22;64340;48.534;-3.036;2023-11-19T10:27:55;17.50;70.20
75719;DHT22;64340;48.534;-3.036;2023-11-19T10:30:27;17.50;71.10
75719;DHT22;64340;48.534;-3.036;2023-11-19T10:33:07;17.50;71.90
75719;DHT22;64340;48.534;-3.036;2023-11-19T10:38:24;17.80;70.50
75719;DHT22;64340;48.534;-3.036;2023-11-19T10:40:50;17.80;70.30
75719;DHT22;64340;48.534;-3.036;2023-11-19T10:43:20;17.80;70.50
75719;DHT22;64340;48.534;-3.036;2023-11-19T10:45:49;17.80;70.00
75719;DHT22;64340;48.534;-3.036;2023-11-19T10:48:16;17.90;70.10
75719;DHT22;64340;48.534;-3.036;2023-11-19T10:50:43;17.90;69.90
75719;DHT22;64340;48.534;-3.036;2023-11-19T10:53:11;18.00;70.00
75719;DHT22;64340;48.534;-3.036;2023-11-19T10:55:39;18.00;69.90
75719;DHT22;64340;48.534;-3.036;2023-11-19T10:58:07;18.00;69.80
75719;DHT22;64340;48.534;-3.036;2023-11-19T11:00:43;18.10;69.90
75719;DHT22;64340;48.534;-3.036;2023-11-19T11:03:20;18.10;69.90
75719;DHT22;64340;48.534;-3.036;2023-11-19T11:05:49;18.10;69.90
75719;DHT22;64340;48.534;-3.036;2023-11-19T11:08:15;18.10;69.80
75719;DHT22;64340;48.534;-3.036;2023-11-19T11:13:11;18.10;69.80
75719;DHT22;64340;48.534;-3.036;2023-11-19T11:15:39;18.10;69.70
75719;DHT22;64340;48.534;-3.036;2023-11-19T11:18:08;18.20;69.60
75719;DHT22;64340;48.534;-3.036;2023-11-19T11:20:35;18.20;69.50
75719;DHT22;64340;48.534;-3.036;2023-11-19T11:29:02;18.30;69.30
75719;DHT22;64340;48.534;-3.036;2023-11-19T11:34:37;18.30;69.00
75719;DHT22;64340;48.534;-3.036;2023-11-19T11:39:49;18.30;68.90
75719;DHT22;64340;48.534;-3.036;2023-11-19T11:45:06;18.40;68.60
75719;DHT22;64340;48.534;-3.036;2023-11-19T11:50:19;18.50;68.20
75719;DHT22;64340;48.534;-3.036;2023-11-19T11:55:35;18.50;68.10
75719;DHT22;64340;48.534;-3.036;2023-11-19T11:58:08;18.50;68.40
75719;DHT22;64340;48.534;-3.036;2023-11-19T12:00:38;18.60;68.40
75719;DHT22;64340;48.534;-3.036;2023-11-19T12:03:05;18.60;68.40
75719;DHT22;64340;48.534;-3.036;2023-11-19T12:05:44;18.60;68.70
75719;DHT22;64340;48.534;-3.036;2023-11-19T12:08:10;18.60;68.60
75719;DHT22;64340;48.534;-3.036;2023-11-19T12:10:45;18.70;68.30
75719;DHT22;64340;48.534;-3.036;2023-11-19T12:13:12;18.70;68.00
75719;DHT22;64340;48.534;-3.036;2023-11-19T12:18:32;18.70;68.10
75719;DHT22;64340;48.534;-3.036;2023-11-19T12:21:01;18.80;67.90
75719;DHT22;64340;48.534;-3.036;2023-11-19T12:23:31;18.80;67.90
75719;DHT22;64340;48.534;-3.036;2023-11-19T12:25:58;18.80;67.80
75719;DHT22;64340;48.534;-3.036;2023-11-19T12:28:24;18.80;68.00
75719;DHT22;64340;48.534;-3.036;2023-11-19T12:30:53;18.80;68.00
75719;DHT22;64340;48.534;-3.036;2023-11-19T12:33:21;18.80;67.90
75719;DHT22;64340;48.534;-3.036;2023-11-19T12:35:48;18.80;67.50
75719;DHT22;64340;48.534;-3.036;2023-11-19T12:38:20;18.80;67.00
75719;DHT22;64340;48.534;-3.036;2023-11-19T12:40:46;18.80;67.10
75719;DHT22;64340;48.534;-3.036;2023-11-19T12:43:21;18.80;67.30
75719;DHT22;64340;48.534;-3.036;2023-11-19T12:45:48;18.90;66.90
75719;DHT22;64340;48.534;-3.036;2023-11-19T12:48:13;18.90;66.60
75719;DHT22;64340;48.534;-3.036;2023-11-19T12:50:55;19.00;66.40
75719;DHT22;64340;48.534;-3.036;2023-11-19T12:53:23;19.00;66.10
75719;DHT22;64340;48.534;-3.036;2023-11-19T12:55:50;19.10;66.40
75719;DHT22;64340;48.534;-3.036;2023-11-19T13:01:02;19.10;66.70
75719;DHT22;64340;48.534;-3.036;2023-11-19T13:03:35;19.10;66.20
75719;DHT22;64340;48.534;-3.036;2023-11-19T13:06:09;19.20;65.60
75719;DHT22;64340;48.534;-3.036;2023-11-19T13:11:06;19.30;65.20
75719;DHT22;64340;48.534;-3.036;2023-11-19T13:13:55;19.30;65.40
75719;DHT22;64340;48.534;-3.036;2023-11-19T13:16:21;19.30;65.70
75719;DHT22;64340;48.534;-3.036;2023-11-19T13:18:47;19.30;65.50
75719;DHT22;64340;48.534;-3.036;2023-11-19T13:21:13;19.30;65.30
75719;DHT22;64340;48.534;-3.036;2023-11-19T13:23:39;19.30;65.00
75719;DHT22;64340;48.534;-3.036;2023-11-19T13:26:04;19.40;64.60
75719;DHT22;64340;48.534;-3.036;2023-11-19T13:28:31;19.30;64.40
75719;DHT22;64340;48.534;-3.036;2023-11-19T13:30:57;19.30;64.70
75719;DHT22;64340;48.534;-3.036;2023-11-19T13:33:23;19.40;64.60
75719;DHT22;64340;48.534;-3.036;2023-11-19T13:35:49;19.40;64.70
75719;DHT22;64340;48.534;-3.036;2023-11-19T13:38:15;19.40;64.80
75719;DHT22;64340;48.534;-3.036;2023-11-19T13:40:40;19.40;64.80
75719;DHT22;64340;48.534;-3.036;2023-11-19T13:43:06;19.40;64.90
75719;DHT22;64340;48.534;-3.036;2023-11-19T13:45:33;19.40;64.40
75719;DHT22;64340;48.534;-3.036;2023-11-19T13:47:59;19.40;64.30
75719;DHT22;64340;48.534;-3.036;2023-11-19T13:50:25;19.40;64.30
75719;DHT22;64340;48.534;-3.036;2023-11-19T13:52:51;19.40;64.70
75719;DHT22;64340;48.534;-3.036;2023-11-19T13:55:17;19.40;64.70
75719;DHT22;64340;48.534;-3.036;2023-11-19T13:57:44;19.40;65.20
75719;DHT22;64340;48.534;-3.036;2023-11-19T14:00:11;19.40;65.30
75719;DHT22;64340;48.534;-3.036;2023-11-19T14:02:46;19.40;65.40
75719;DHT22;64340;48.534;-3.036;2023-11-19T14:05:16;19.40;65.40
75719;DHT22;64340;48.534;-3.036;2023-11-19T14:07:45;19.40;65.50
75719;DHT22;64340;48.534;-3.036;2023-11-19T14:10:14;19.50;65.30
75719;DHT22;64340;48.534;-3.036;2023-11-19T14:12:40;19.50;65.40
75719;DHT22;64340;48.534;-3.036;2023-11-19T14:15:08;19.50;65.50
75719;DHT22;64340;48.534;-3.036;2023-11-19T14:17:42;19.50;65.60
75719;DHT22;64340;48.534;-3.036;2023-11-19T14:20:09;19.50;65.70
75719;DHT22;64340;48.534;-3.036;2023-11-19T14:22:43;19.50;65.50
75719;DHT22;64340;48.534;-3.036;2023-11-19T14:25:10;19.50;65.50
75719;DHT22;64340;48.534;-3.036;2023-11-19T14:27:37;19.50;65.60
75719;DHT22;64340;48.534;-3.036;2023-11-19T14:30:07;19.50;65.70
75719;DHT22;64340;48.534;-3.036;2023-11-19T14:32:37;19.60;65.80
75719;DHT22;64340;48.534;-3.036;2023-11-19T14:35:04;19.60;65.70
75719;DHT22;64340;48.534;-3.036;2023-11-19T14:37:30;19.60;65.80
75719;DHT22;64340;48.534;-3.036;2023-11-19T14:39:57;19.60;65.90
75719;DHT22;64340;48.534;-3.036;2023-11-19T14:42:23;19.60;65.90
75719;DHT22;64340;48.534;-3.036;2023-11-19T14:44:53;19.60;65.90
75719;DHT22;64340;48.534;-3.036;2023-11-19T14:47:20;19.60;65.90
75719;DHT22;64340;48.534;-3.036;2023-11-19T14:49:47;19.60;66.00
75719;DHT22;64340;48.534;-3.036;2023-11-19T14:52:13;19.60;65.90
75719;DHT22;64340;48.534;-3.036;2023-11-19T14:54:39;19.60;65.90
75719;DHT22;64340;48.534;-3.036;2023-11-19T14:57:09;19.70;65.90
75719;DHT22;64340;48.534;-3.036;2023-11-19T14:59:35;19.60;65.90
75719;DHT22;64340;48.534;-3.036;2023-11-19T15:02:01;19.60;65.90
75719;DHT22;64340;48.534;-3.036;2023-11-19T15:04:28;19.60;66.00
75719;DHT22;64340;48.534;-3.036;2023-11-19T15:06:57;19.60;65.90
75719;DHT22;64340;48.534;-3.036;2023-11-19T15:09:23;19.70;65.90
75719;DHT22;64340;48.534;-3.036;2023-11-19T15:11:50;19.70;66.00
75719;DHT22;64340;48.534;-3.036;2023-11-19T15:14:16;19.50;63.00
75719;DHT22;64340;48.534;-3.036;2023-11-19T15:16:45;19.50;64.20
75719;DHT22;64340;48.534;-3.036;2023-11-19T15:19:12;19.50;64.80
75719;DHT22;64340;48.534;-3.036;2023-11-19T15:21:43;19.50;65.30
75719;DHT22;64340;48.534;-3.036;2023-11-19T15:24:09;19.50;65.40
75719;DHT22;64340;48.534;-3.036;2023-11-19T15:26:36;19.50;65.40
75719;DHT22;64340;48.534;-3.036;2023-11-19T15:29:03;19.50;65.40
75719;DHT22;64340;48.534;-3.036;2023-11-19T15:31:29;19.50;65.50
75719;DHT22;64340;48.534;-3.036;2023-11-19T15:33:56;19.50;65.60
75719;DHT22;64340;48.534;-3.036;2023-11-19T15:36:21;19.50;65.70
75719;DHT22;64340;48.534;-3.036;2023-11-19T15:38:47;19.50;65.70
75719;DHT22;64340;48.534;-3.036;2023-11-19T15:41:14;19.50;65.70
75719;DHT22;64340;48.534;-3.036;2023-11-19T15:43:40;19.50;65.60
75719;DHT22;64340;48.534;-3.036;2023-11-19T15:46:07;19.50;65.60
75719;DHT22;64340;48.534;-3.036;2023-11-19T15:48:35;19.50;65.60